Terminal Aerodrome Forecast
Issued by NWS

Home | Current Version | Previous Version | Text Only | Print | Product List | Glossary On
Versions: 1 2 3 4 5 6 7 8 9 10 11 12 13 14 15 16 17 18 19 20 21 22 23 24 25 26 27 28 29 30 31 32 33 34 35 36
000
FTUS44 KSJT 050500
TAFJCT
TAF
KJCT 050532Z 0506/0606 02018G27KT 4SM -FZRA BR OVC014
      TEMPO 0506/0507 3SM -FZRAPL BR OVC009
     FM050700 02020G30KT P6SM -PL OVC014
     FM051000 01016G23KT P6SM OVC015
     FM051500 02014G21KT P6SM SCT050=

USA.gov is the U.S. government's official web portal to all federal, state and local government web resources and services.